Time;durP1;ratioP1;P1;durP2;ratioP2;P2;SDS_P1;SDS_P2;PMS_P1;PMS_P2;Temp;Humidity;BMP_temperature;BMP_pressure;BME280_temperature;BME280_humidity;BME280_pressure;Samples;Min_cycle;Max_cycle;Signal;HPM_P1;HPM_P2
2022/06/24 11:52:23;;;;;;;2.10;1.88;;;23.30;62.10;;;;;;4778038;29;43574;-48
2022/06/24 11:54:51;;;;;;;1.50;1.40;;;23.30;62.00;;;;;;4792167;24;43692;-55
2022/06/24 11:57:21;;;;;;;1.58;1.48;;;23.30;61.90;;;;;;4782078;29;43637;-54
2022/06/24 11:59:49;;;;;;;1.50;1.40;;;23.30;61.90;;;;;;4775945;29;44245;-54
2022/06/24 12:02:17;;;;;;;2.22;1.70;;;23.40;61.90;;;;;;4774849;29;43506;-48
2022/06/24 12:04:47;;;;;;;1.83;1.65;;;23.40;62.00;;;;;;4761472;29;43500;-48
2022/06/24 12:07:15;;;;;;;2.10;1.50;;;23.40;62.10;;;;;;4786907;29;43643;-48
2022/06/24 12:09:43;;;;;;;1.85;1.60;;;23.40;62.00;;;;;;4777558;29;44332;-49
2022/06/24 12:12:13;;;;;;;1.60;1.50;;;23.40;62.00;;;;;;4783017;29;43450;-46
2022/06/24 12:14:41;;;;;;;1.60;1.50;;;23.40;62.20;;;;;;4778734;29;43510;-49
2022/06/24 12:17:10;;;;;;;1.80;1.55;;;23.40;61.90;;;;;;4785736;29;43768;-49
2022/06/24 12:20:01;;;;;;;1.70;1.60;;;23.40;61.90;;;;;;4782954;29;43954;-49
2022/06/24 12:22:30;;;;;;;2.45;1.63;;;23.40;61.70;;;;;;4778887;29;43577;-52
2022/06/24 12:25:03;;;;;;;1.73;1.48;;;23.40;62.10;;;;;;4784465;29;43590;-50
2022/06/24 12:27:32;;;;;;;1.98;1.50;;;23.40;62.00;;;;;;4786392;29;43574;-49
2022/06/24 12:30:00;;;;;;;1.83;1.67;;;23.40;61.90;;;;;;4787313;29;44645;-49
2022/06/24 12:32:28;;;;;;;1.60;1.45;;;23.40;62.10;;;;;;4768622;29;43446;-48
2022/06/24 12:45:34;;;;;;;3.00;1.60;;;23.40;62.10;;;;;;5431610;24;44492;-60
2022/06/24 12:51:03;;;;;;;1.88;1.20;;;23.40;62.30;;;;;;4800724;29;43389;-60
2022/06/24 12:53:32;;;;;;;2.25;1.67;;;23.40;62.00;;;;;;4803147;29;44681;-60
2022/06/24 12:56:00;;;;;;;1.73;1.50;;;23.40;62.00;;;;;;4799581;29;43474;-60
2022/06/24 12:58:27;;;;;;;2.45;1.50;;;23.40;61.90;;;;;;4801523;29;43542;-60
2022/06/24 13:00:55;;;;;;;2.97;1.60;;;23.40;61.80;;;;;;4797632;29;43551;-60
2022/06/24 13:03:23;;;;;;;1.58;1.48;;;23.40;61.80;;;;;;4792987;29;43973;-60
2022/06/24 13:05:51;;;;;;;2.22;1.67;;;23.40;61.90;;;;;;4798621;29;43529;-60
2022/06/24 13:08:31;;;;;;;1.44;1.34;;;23.40;61.70;;;;;;4337078;29;10001585;-59
2022/06/24 13:10:58;;;;;;;1.60;1.50;;;23.40;61.70;;;;;;4785874;29;43649;-60
2022/06/24 13:13:27;;;;;;;1.50;1.40;;;23.40;61.80;;;;;;4804378;29;44012;-59
2022/06/24 13:15:54;;;;;;;1.45;1.35;;;23.40;61.70;;;;;;3956909;29;10000762;-60
2022/06/24 13:18:22;;;;;;;1.52;1.42;;;23.40;61.70;;;;;;4803941;29;43717;-59
2022/06/24 13:20:50;;;;;;;1.55;1.45;;;23.40;61.70;;;;;;4798097;29;44011;-60
2022/06/24 13:23:17;;;;;;;1.70;1.40;;;23.40;61.90;;;;;;4806452;29;43658;-60
2022/06/24 13:25:46;;;;;;;2.10;1.45;;;23.40;61.70;;;;;;4799894;29;44108;-59
2022/06/24 13:28:13;;;;;;;2.13;1.70;;;23.40;61.60;;;;;;4796762;29;43925;-60
2022/06/24 13:30:41;;;;;;;2.42;1.42;;;23.40;61.60;;;;;;4803992;29;43685;-60
2022/06/24 13:33:09;;;;;;;1.70;1.60;;;23.40;61.70;;;;;;4803639;29;43455;-59
2022/06/24 13:35:36;;;;;;;1.83;1.50;;;23.40;61.60;;;;;;4799052;29;43488;-60
2022/06/24 13:38:04;;;;;;;1.85;1.75;;;23.50;61.60;;;;;;4798636;29;44991;-60
2022/06/24 13:40:31;;;;;;;1.40;1.30;;;23.50;61.50;;;;;;4801435;29;43510;-60
2022/06/24 13:42:59;;;;;;;1.95;1.73;;;23.50;61.60;;;;;;3955310;29;10000205;-60
2022/06/24 13:45:27;;;;;;;1.30;1.20;;;23.50;61.50;;;;;;4804052;29;43666;-60
2022/06/24 13:47:54;;;;;;;1.70;1.60;;;23.50;61.40;;;;;;4800572;29;43935;-60
2022/06/24 13:50:22;;;;;;;2.17;1.30;;;23.50;61.50;;;;;;4801493;29;43706;-60
2022/06/24 13:52:49;;;;;;;1.42;1.33;;;23.50;61.60;;;;;;4785010;29;44918;-60
2022/06/24 13:55:17;;;;;;;2.35;1.50;;;23.50;61.60;;;;;;4801582;29;44288;-60
2022/06/24 13:57:45;;;;;;;1.50;1.40;;;23.50;61.70;;;;;;4802497;29;43539;-59
2022/06/24 14:00:12;;;;;;;1.50;1.40;;;23.50;61.60;;;;;;4801774;29;43542;-59
2022/06/24 14:02:40;;;;;;;1.30;1.20;;;23.50;61.60;;;;;;4804548;29;44902;-59
2022/06/24 14:05:08;;;;;;;1.20;1.20;;;23.50;61.60;;;;;;4800310;29;43470;-59
2022/06/24 14:07:36;;;;;;;1.48;1.30;;;23.50;61.50;;;;;;4785443;29;43464;-60
2022/06/24 14:10:04;;;;;;;1.67;1.30;;;23.50;61.60;;;;;;4800762;29;43474;-60
2022/06/24 14:12:52;;;;;;;1.38;1.27;;;23.50;61.70;;;;;;4797838;29;44015;-60
2022/06/24 14:15:19;;;;;;;2.20;1.50;;;23.50;61.60;;;;;;4800573;29;43997;-60
2022/06/24 14:17:47;;;;;;;1.38;1.25;;;23.50;61.60;;;;;;4802904;29;43470;-60
2022/06/24 14:20:16;;;;;;;3.78;1.60;;;23.50;61.50;;;;;;4802755;29;43504;-59
2022/06/24 14:25:31;;;;;;;1.58;1.40;;;23.50;61.70;;;;;;4803089;29;43507;-59
2022/06/24 14:28:00;;;;;;;1.55;1.33;;;23.50;61.50;;;;;;4788788;29;43498;-60
2022/06/24 14:30:28;;;;;;;1.35;1.25;;;23.50;61.60;;;;;;4804842;29;43477;-60
2022/06/24 14:32:56;;;;;;;2.15;1.58;;;23.50;61.50;;;;;;4801097;29;43792;-59
2022/06/24 14:35:24;;;;;;;1.77;1.50;;;23.50;61.50;;;;;;4802388;29;43499;-60
2022/06/24 14:40:37;;;;;;;1.35;1.25;;;23.50;61.40;;;;;;4793396;29;43384;-59
2022/06/24 14:43:18;;;;;;;1.60;1.30;;;23.60;62.10;;;;;;4779492;29;44918;-60
2022/06/24 14:45:48;;;;;;;2.00;1.30;;;23.60;61.40;;;;;;4792110;29;43574;-60
2022/06/24 14:48:17;;;;;;;1.02;1.02;;;23.60;61.40;;;;;;4793525;29;43441;-60
2022/06/24 14:50:45;;;;;;;1.17;1.15;;;23.60;61.30;;;;;;4795143;29;43709;-60
2022/06/24 14:53:13;;;;;;;1.40;1.30;;;23.60;61.30;;;;;;4806688;29;45266;-60
2022/06/24 14:55:41;;;;;;;1.20;1.10;;;23.70;61.30;;;;;;4800089;29;43485;-60
2022/06/24 14:58:08;;;;;;;1.85;1.17;;;23.70;61.20;;;;;;4805109;29;43571;-60
2022/06/24 15:00:36;;;;;;;1.45;1.30;;;23.70;61.20;;;;;;4804494;29;43570;-60
2022/06/24 15:03:04;;;;;;;1.67;1.00;;;23.80;61.40;;;;;;3957173;29;10001015;-60
2022/06/24 15:05:33;;;;;;;1.38;1.27;;;23.70;61.30;;;;;;4803183;29;43556;-60
2022/06/24 15:08:01;;;;;;;1.50;1.20;;;23.80;61.20;;;;;;4804117;29;45527;-60
2022/06/24 15:10:28;;;;;;;2.95;1.60;;;23.80;61.20;;;;;;4803247;29;43471;-60
2022/06/24 15:12:56;;;;;;;1.38;1.27;;;23.80;61.20;;;;;;4806143;29;43468;-59
2022/06/24 15:15:23;;;;;;;1.80;1.20;;;23.80;61.20;;;;;;4803354;29;43483;-60
2022/06/24 15:17:51;;;;;;;1.10;1.10;;;23.80;61.30;;;;;;4802397;29;44205;-60
2022/06/24 15:20:18;;;;;;;1.50;1.40;;;23.80;61.10;;;;;;4804419;29;43478;-60
2022/06/24 15:22:46;;;;;;;1.83;1.17;;;23.80;61.20;;;;;;4806104;29;43462;-60
2022/06/24 15:25:13;;;;;;;1.08;1.00;;;23.90;61.30;;;;;;4806384;29;43678;-60
2022/06/24 15:27:41;;;;;;;1.60;1.15;;;23.80;61.20;;;;;;4797100;29;43994;-60
2022/06/24 15:30:09;;;;;;;1.38;1.27;;;23.80;61.20;;;;;;4798453;29;44023;-60
2022/06/24 15:32:37;;;;;;;1.17;1.08;;;23.80;61.20;;;;;;4800912;29;43550;-60
2022/06/24 15:35:05;;;;;;;1.92;1.15;;;23.90;61.10;;;;;;4798130;29;43477;-60
2022/06/24 15:37:32;;;;;;;1.10;1.10;;;23.90;61.20;;;;;;4798151;29;44391;-60
2022/06/24 15:40:01;;;;;;;1.20;1.20;;;23.90;61.20;;;;;;4782421;29;44794;-60
2022/06/24 15:42:28;;;;;;;1.08;1.08;;;23.90;61.20;;;;;;4781358;29;43577;-60
2022/06/24 15:44:56;;;;;;;1.40;1.17;;;23.90;61.20;;;;;;4797082;29;43596;-60
2022/06/24 15:47:23;;;;;;;1.00;1.00;;;23.90;61.20;;;;;;4783941;29;44033;-60
2022/06/24 15:49:52;;;;;;;1.30;1.20;;;23.90;61.20;;;;;;4802417;29;43476;-60
2022/06/24 15:52:20;;;;;;;1.05;1.05;;;23.80;61.20;;;;;;4809148;29;43510;-60
2022/06/24 15:54:47;;;;;;;1.77;1.20;;;23.80;61.20;;;;;;4800841;29;43587;-60
2022/06/24 15:57:15;;;;;;;0.80;0.80;;;23.90;61.20;;;;;;4802983;29;43796;-60
2022/06/24 15:59:43;;;;;;;1.58;1.10;;;23.90;61.20;;;;;;4806050;29;43422;-60
2022/06/24 16:02:12;;;;;;;1.35;1.10;;;23.90;61.10;;;;;;4804745;29;43477;-60
2022/06/24 16:04:40;;;;;;;1.15;1.10;;;23.90;61.10;;;;;;4795935;29;43573;-60
2022/06/24 16:07:13;;;;;;;1.77;1.20;;;23.90;61.10;;;;;;4796625;29;43809;-60
2022/06/24 16:09:41;;;;;;;1.67;1.20;;;23.90;61.20;;;;;;4796695;29;43436;-59
2022/06/24 16:15:14;;;;;;;1.38;1.27;;;23.90;61.20;;;;;;4718648;30;43530;-60
2022/06/24 16:17:44;;;;;;;0.90;0.90;;;23.80;61.20;;;;;;4705904;30;43918;-60
2022/06/24 16:20:11;;;;;;;1.25;1.15;;;23.90;61.20;;;;;;4759326;29;44032;-60
2022/06/24 16:22:39;;;;;;;1.40;1.30;;;23.80;61.20;;;;;;4796189;29;43467;-60
2022/06/24 16:30:45;;;;;;;1.35;1.25;;;23.90;61.20;;;;;;4795841;29;43533;-60
2022/06/24 16:33:12;;;;;;;1.05;1.05;;;23.90;61.20;;;;;;4796608;29;43516;-60
2022/06/24 16:35:42;;;;;;;1.20;1.20;;;23.90;61.20;;;;;;4795723;29;43460;-60
2022/06/24 16:38:10;;;;;;;1.17;1.08;;;23.90;61.10;;;;;;4795824;29;44091;-60
2022/06/24 16:40:38;;;;;;;1.20;1.10;;;23.90;61.30;;;;;;4794797;29;43706;-60
2022/06/24 16:43:17;;;;;;;0.98;0.98;;;23.90;61.30;;;;;;4789328;29;43515;-59
2022/06/24 16:45:53;;;;;;;1.10;1.00;;;23.90;61.30;;;;;;4803922;29;43519;-60
2022/06/24 16:48:23;;;;;;;1.08;1.08;;;23.90;61.20;;;;;;4773954;29;46061;-60
2022/06/24 16:50:51;;;;;;;1.38;1.27;;;23.90;61.20;;;;;;4804681;29;43458;-60
2022/06/24 16:53:33;;;;;;;1.40;1.30;;;24.00;61.10;;;;;;4801717;29;43665;-60
2022/06/24 16:56:03;;;;;;;1.40;1.30;;;24.00;61.20;;;;;;4807934;29;43622;-60
2022/06/24 16:58:38;;;;;;;1.08;1.08;;;24.00;61.10;;;;;;4798623;29;44111;-60
2022/06/24 17:01:06;;;;;;;1.40;1.30;;;24.10;61.10;;;;;;4799639;29;43487;-60
2022/06/24 17:03:34;;;;;;;1.30;1.20;;;24.10;61.10;;;;;;4787499;29;43416;-60
2022/06/24 17:06:23;;;;;;;1.27;1.20;;;24.10;61.00;;;;;;4804395;29;43595;-60
2022/06/24 17:08:52;;;;;;;1.30;1.20;;;24.10;61.10;;;;;;4797526;29;44043;-59
2022/06/24 17:11:22;;;;;;;1.30;1.20;;;24.10;61.20;;;;;;4787165;29;43528;-60
2022/06/24 17:13:54;;;;;;;1.55;1.40;;;24.10;61.20;;;;;;4802495;29;43453;-60
2022/06/24 17:16:22;;;;;;;1.33;1.27;;;24.10;61.10;;;;;;4799242;29;43618;-60
2022/06/24 17:18:53;;;;;;;1.33;1.23;;;24.10;61.10;;;;;;4801116;29;44135;-60
2022/06/24 17:21:20;;;;;;;1.20;1.08;;;24.10;61.10;;;;;;4803444;29;43600;-60
2022/06/24 17:23:52;;;;;;;1.58;1.48;;;24.10;61.10;;;;;;4786331;29;43472;-60
2022/06/24 17:26:19;;;;;;;1.25;1.20;;;24.10;61.20;;;;;;4781332;29;43626;-60
2022/06/24 17:28:49;;;;;;;1.25;1.23;;;24.00;61.10;;;;;;4800576;29;44075;-60
2022/06/24 17:31:17;;;;;;;1.73;1.10;;;24.10;61.10;;;;;;4803886;29;43518;-60
2022/06/24 17:33:47;;;;;;;1.38;1.27;;;24.10;61.40;;;;;;4803379;29;43489;-60
2022/06/24 17:36:14;;;;;;;2.15;1.20;;;24.00;61.20;;;;;;4803729;29;43473;-59
2022/06/24 17:38:42;;;;;;;1.35;1.25;;;24.00;61.30;;;;;;4800531;29;43790;-60
2022/06/24 17:41:11;;;;;;;1.35;1.25;;;24.00;61.30;;;;;;4803837;29;43387;-60
2022/06/24 17:43:40;;;;;;;1.25;1.25;;;24.00;61.40;;;;;;4797103;29;43533;-59
2022/06/24 17:46:08;;;;;;;1.40;1.30;;;24.00;61.20;;;;;;4797813;29;43553;-60
2022/06/24 17:48:36;;;;;;;1.27;1.17;;;24.00;61.20;;;;;;4802312;29;45071;-60
2022/06/24 17:51:03;;;;;;;1.63;1.10;;;24.10;61.20;;;;;;4805565;29;43422;-60
2022/06/24 17:53:32;;;;;;;1.55;1.45;;;24.00;61.10;;;;;;4800839;29;43502;-60
2022/06/24 17:56:00;;;;;;;1.30;1.30;;;24.10;61.30;;;;;;4794887;29;43539;-60
2022/06/24 17:58:28;;;;;;;1.20;1.20;;;24.00;61.20;;;;;;4794263;29;44047;-60
2022/06/24 18:00:56;;;;;;;1.10;1.10;;;24.00;61.10;;;;;;4798632;29;44129;-60
2022/06/24 18:03:29;;;;;;;1.30;1.30;;;24.10;61.30;;;;;;4787045;29;43473;-60
2022/06/24 18:05:57;;;;;;;1.50;1.40;;;24.00;61.40;;;;;;4804896;29;43623;-60
2022/06/24 18:08:25;;;;;;;1.40;1.30;;;24.00;61.40;;;;;;4805690;29;43781;-60
2022/06/24 18:10:54;;;;;;;1.63;1.52;;;24.00;61.50;;;;;;4803682;29;43489;-60
2022/06/24 18:13:23;;;;;;;1.50;1.40;;;24.00;61.50;;;;;;4801755;29;43531;-60
2022/06/24 18:15:51;;;;;;;1.20;1.20;;;24.00;61.50;;;;;;4800444;29;43611;-60
2022/06/24 18:18:22;;;;;;;1.50;1.40;;;24.00;61.40;;;;;;4805940;29;44102;-60
2022/06/24 18:20:51;;;;;;;1.33;1.23;;;24.00;61.60;;;;;;4803570;29;43460;-60
2022/06/24 18:23:19;;;;;;;1.48;1.38;;;24.00;61.50;;;;;;4800953;29;43490;-60
2022/06/24 18:25:47;;;;;;;1.48;1.38;;;24.00;61.50;;;;;;4800034;29;44090;-60
2022/06/24 18:28:17;;;;;;;1.63;1.25;;;24.00;61.50;;;;;;4803915;29;44991;-60
2022/06/24 18:30:46;;;;;;;1.98;1.80;;;24.10;61.50;;;;;;4781037;29;43591;-60
2022/06/24 18:33:15;;;;;;;1.35;1.27;;;24.00;61.50;;;;;;4800361;29;43512;-60
2022/06/24 18:35:42;;;;;;;1.30;1.23;;;24.00;61.40;;;;;;4799950;29;43434;-60
2022/06/24 18:38:10;;;;;;;1.50;1.40;;;24.10;61.40;;;;;;4781923;29;44043;-60
2022/06/24 18:40:39;;;;;;;1.33;1.23;;;24.00;61.40;;;;;;4802904;29;43495;-60
2022/06/24 18:43:07;;;;;;;1.27;1.17;;;24.10;61.40;;;;;;4800346;29;43418;-60
2022/06/24 18:45:36;;;;;;;1.30;1.30;;;24.00;61.20;;;;;;4800865;29;43637;-60
2022/06/24 18:48:04;;;;;;;1.70;1.50;;;24.10;61.30;;;;;;4798633;29;45082;-60
2022/06/24 18:50:32;;;;;;;1.20;1.20;;;24.10;61.30;;;;;;4798879;29;44022;-60
2022/06/24 18:53:00;;;;;;;1.45;1.40;;;24.10;61.30;;;;;;4798272;29;43495;-59
2022/06/24 18:55:30;;;;;;;1.50;1.40;;;24.10;61.60;;;;;;4804573;29;43613;-60
2022/06/24 18:58:00;;;;;;;1.20;1.20;;;24.10;61.30;;;;;;4794424;29;44133;-60
2022/06/24 19:00:28;;;;;;;1.45;1.35;;;24.10;61.30;;;;;;4802710;29;43570;-59
2022/06/24 19:02:56;;;;;;;1.38;1.27;;;24.10;61.30;;;;;;4799190;29;43511;-60
2022/06/24 19:05:24;;;;;;;1.23;1.23;;;24.10;61.20;;;;;;4806558;29;43543;-60
2022/06/24 19:07:52;;;;;;;1.40;1.30;;;24.10;61.20;;;;;;4803807;29;44822;-60
2022/06/24 19:10:21;;;;;;;1.50;1.40;;;24.00;61.20;;;;;;4803152;29;43467;-60
2022/06/24 19:12:48;;;;;;;1.20;1.20;;;24.10;61.30;;;;;;4802802;29;43446;-60
2022/06/24 19:15:16;;;;;;;1.10;1.10;;;24.10;61.30;;;;;;4805580;29;43459;-60
2022/06/24 19:17:44;;;;;;;1.40;1.38;;;24.10;61.20;;;;;;4800134;29;44264;-60
2022/06/24 19:20:12;;;;;;;1.30;1.30;;;24.10;61.30;;;;;;4804617;29;43430;-60
2022/06/24 19:22:43;;;;;;;;;;;24.00;61.20;;;;;;4804181;29;43514;-60
2022/06/24 19:25:10;;;;;;;1.23;1.23;;;24.00;61.20;;;;;;4808426;29;43435;-60
2022/06/24 19:27:38;;;;;;;1.15;1.15;;;24.00;61.30;;;;;;4797841;29;43833;-60
2022/06/24 19:30:23;;;;;;;1.27;1.17;;;24.00;61.30;;;;;;4799087;29;43877;-59
2022/06/24 19:32:54;;;;;;;1.30;1.20;;;24.00;61.30;;;;;;4797329;29;44068;-60
2022/06/24 19:35:28;;;;;;;1.20;1.20;;;24.00;61.30;;;;;;4804853;29;43653;-60
2022/06/24 19:38:06;;;;;;;1.30;1.20;;;24.00;61.30;;;;;;4805324;29;45073;-60
2022/06/24 19:40:33;;;;;;;1.70;1.60;;;24.00;61.30;;;;;;4802560;29;43478;-60
2022/06/24 19:43:01;;;;;;;1.20;1.20;;;24.00;61.30;;;;;;4799342;29;43462;-60
2022/06/24 19:45:28;;;;;;;1.20;1.10;;;24.00;61.30;;;;;;4802852;29;43648;-60
2022/06/24 19:47:56;;;;;;;1.48;1.38;;;24.00;61.30;;;;;;4807200;29;44689;-60
2022/06/24 19:50:24;;;;;;;1.30;1.27;;;24.00;61.30;;;;;;4803142;29;43754;-60
2022/06/24 19:52:52;;;;;;;1.58;1.30;;;24.00;61.40;;;;;;4799524;29;43594;-60
2022/06/24 19:55:19;;;;;;;1.60;1.50;;;24.00;62.00;;;;;;4785165;29;43626;-60
2022/06/24 19:57:47;;;;;;;1.50;1.40;;;24.00;61.40;;;;;;4796153;29;45011;-61
2022/06/24 20:00:33;;;;;;;1.70;1.60;;;24.00;61.90;;;;;;4800451;29;43624;-60
2022/06/24 20:05:49;;;;;;;1.40;1.30;;;24.00;61.80;;;;;;4805694;29;44374;-60
2022/06/24 20:08:26;;;;;;;1.30;1.20;;;24.00;61.60;;;;;;4782848;29;44562;-60
2022/06/24 20:10:59;;;;;;;1.40;1.30;;;24.00;61.40;;;;;;4803312;29;43986;-59
2022/06/24 20:13:27;;;;;;;1.40;1.30;;;24.00;61.60;;;;;;4800157;29;43443;-60
2022/06/24 20:16:00;;;;;;;1.35;1.10;;;24.00;61.60;;;;;;4784227;29;43561;-60
2022/06/24 20:18:28;;;;;;;1.83;1.33;;;24.00;61.50;;;;;;4788661;29;44832;-60
2022/06/24 20:20:55;;;;;;;1.60;1.40;;;24.00;61.40;;;;;;4804759;29;44299;-60
2022/06/24 20:23:28;;;;;;;1.30;1.30;;;24.00;61.40;;;;;;4805907;29;43506;-60
2022/06/24 20:26:05;;;;;;;1.10;1.10;;;24.00;61.40;;;;;;4801136;29;43828;-60
2022/06/24 20:28:35;;;;;;;1.83;1.30;;;24.00;61.40;;;;;;4788788;29;43908;-60
2022/06/24 20:31:04;;;;;;;1.23;1.23;;;24.00;61.60;;;;;;4795168;29;43545;-60
2022/06/24 20:33:34;;;;;;;2.05;1.40;;;24.00;61.70;;;;;;4794567;29;43525;-60
2022/06/24 20:36:01;;;;;;;1.23;1.23;;;23.90;61.70;;;;;;4794129;29;43501;-60
2022/06/24 20:38:29;;;;;;;1.95;1.40;;;23.90;61.70;;;;;;4793718;29;44688;-60
2022/06/24 20:40:57;;;;;;;1.27;1.20;;;23.90;61.90;;;;;;4795469;29;43979;-60
2022/06/24 20:43:26;;;;;;;1.60;1.20;;;23.90;61.90;;;;;;4794759;29;43595;-60
2022/06/24 20:45:58;;;;;;;1.25;1.25;;;23.90;61.90;;;;;;4794714;29;43451;-60
2022/06/24 20:48:29;;;;;;;1.52;1.42;;;23.80;61.90;;;;;;4794300;29;45010;-60
2022/06/24 20:50:57;;;;;;;1.17;1.10;;;23.80;61.90;;;;;;4802254;29;43526;-60
2022/06/24 20:53:25;;;;;;;1.20;1.20;;;23.80;61.90;;;;;;4793984;29;43524;-60
2022/06/24 20:55:52;;;;;;;1.50;1.35;;;23.80;61.90;;;;;;4794565;29;43452;-60
2022/06/24 20:58:20;;;;;;;1.27;1.23;;;23.80;61.90;;;;;;4793289;29;44128;-60
2022/06/24 21:00:48;;;;;;;1.60;1.50;;;23.80;61.90;;;;;;4794289;29;43572;-60
2022/06/24 21:03:16;;;;;;;2.20;1.40;;;23.80;61.90;;;;;;4778627;29;43579;-60
2022/06/24 21:05:43;;;;;;;1.45;1.35;;;23.70;61.80;;;;;;4794716;29;43491;-60
2022/06/24 21:08:11;;;;;;;1.40;1.30;;;23.70;61.80;;;;;;4794098;29;44593;-60
2022/06/24 21:10:39;;;;;;;1.30;1.30;;;23.70;61.80;;;;;;4795080;29;43777;-60
2022/06/24 21:13:10;;;;;;;1.10;1.10;;;23.70;61.80;;;;;;4794175;29;43523;-60
2022/06/24 21:15:38;;;;;;;1.50;1.40;;;23.70;61.90;;;;;;4794852;29;43537;-60
2022/06/24 21:18:07;;;;;;;1.30;1.30;;;23.70;61.80;;;;;;4794811;29;44965;-60
2022/06/24 21:20:42;;;;;;;1.20;1.20;;;23.70;61.90;;;;;;4789546;29;43492;-60
2022/06/24 21:23:11;;;;;;;1.20;1.10;;;23.60;61.80;;;;;;4794960;29;43470;-60
2022/06/24 21:25:38;;;;;;;1.50;1.20;;;23.60;61.80;;;;;;4794012;29;43586;-60
2022/06/24 21:28:06;;;;;;;1.83;1.50;;;23.60;61.70;;;;;;4795148;29;43759;-60
2022/06/24 21:30:34;;;;;;;1.10;1.10;;;23.60;61.80;;;;;;4790375;29;43546;-60
2022/06/24 21:33:01;;;;;;;1.10;1.10;;;23.60;61.80;;;;;;4794902;29;43465;-59
2022/06/24 21:35:29;;;;;;;1.50;1.23;;;23.60;61.80;;;;;;4793732;29;43580;-60
2022/06/24 21:37:57;;;;;;;1.13;1.13;;;23.60;61.70;;;;;;4795618;29;44817;-60
2022/06/24 21:40:24;;;;;;;1.20;1.20;;;23.60;61.80;;;;;;4794368;29;43480;-60
2022/06/24 21:42:51;;;;;;;1.48;1.38;;;23.60;61.80;;;;;;4794071;29;43560;-60
2022/06/24 21:45:19;;;;;;;1.30;1.30;;;23.60;61.80;;;;;;4794193;29;43525;-60
2022/06/24 21:47:46;;;;;;;1.50;1.40;;;23.50;61.70;;;;;;4794272;29;43789;-60
2022/06/24 21:50:14;;;;;;;1.40;1.30;;;23.60;61.80;;;;;;4793463;29;43501;-60
2022/06/24 21:52:41;;;;;;;1.60;1.50;;;23.50;61.70;;;;;;4794345;29;43582;-60
2022/06/24 21:55:09;;;;;;;1.70;1.20;;;23.50;61.80;;;;;;4793323;29;43435;-60
2022/06/24 21:57:37;;;;;;;1.23;1.23;;;23.50;61.80;;;;;;4791216;29;43893;-60
2022/06/24 22:00:09;;;;;;;1.08;1.08;;;23.50;61.70;;;;;;4793089;29;43970;-60
2022/06/24 22:02:37;;;;;;;1.33;1.33;;;23.50;61.90;;;;;;4792597;29;43451;-60
2022/06/24 22:05:06;;;;;;;1.00;1.00;;;23.50;61.80;;;;;;4788160;29;43475;-60
2022/06/24 22:07:33;;;;;;;1.55;1.50;;;23.50;61.80;;;;;;4794784;29;44682;-60
2022/06/24 22:10:03;;;;;;;1.25;1.15;;;23.50;61.80;;;;;;4792100;29;43811;-60
2022/06/24 22:12:30;;;;;;;1.40;1.30;;;23.50;61.80;;;;;;4793566;29;43487;-60
2022/06/24 22:14:58;;;;;;;1.58;1.30;;;23.50;61.80;;;;;;4794560;29;43569;-60
2022/06/24 22:20:12;;;;;;;1.40;1.40;;;23.50;61.80;;;;;;4794080;29;43459;-60
2022/06/24 22:22:40;;;;;;;1.65;1.50;;;23.50;61.80;;;;;;4786481;29;43476;-60
2022/06/24 22:25:08;;;;;;;1.45;1.13;;;23.40;61.70;;;;;;4794066;29;43539;-60
2022/06/24 22:27:35;;;;;;;1.25;1.20;;;23.40;61.80;;;;;;4775818;29;43798;-60
2022/06/24 22:30:04;;;;;;;1.40;1.40;;;23.40;61.80;;;;;;4794186;29;43512;-60
2022/06/24 22:32:31;;;;;;;1.20;1.20;;;23.40;61.80;;;;;;4793225;29;43661;-60
2022/06/24 22:34:59;;;;;;;1.35;1.30;;;23.40;61.90;;;;;;4795190;29;43431;-60
2022/06/24 22:37:27;;;;;;;1.50;1.40;;;23.40;61.80;;;;;;4792870;29;45020;-60
2022/06/24 22:39:54;;;;;;;1.40;1.30;;;23.40;61.80;;;;;;4793969;29;43443;-60
2022/06/24 22:42:22;;;;;;;1.38;1.27;;;23.40;61.80;;;;;;4794593;29;43452;-60
2022/06/24 22:44:49;;;;;;;1.10;1.10;;;23.40;61.80;;;;;;4793862;29;43531;-60
2022/06/24 22:47:17;;;;;;;1.10;1.10;;;23.40;61.80;;;;;;4793821;29;44677;-60
2022/06/24 22:49:44;;;;;;;1.50;1.40;;;23.40;61.70;;;;;;4793106;29;43446;-60
2022/06/24 22:52:12;;;;;;;1.20;1.20;;;23.40;61.70;;;;;;4799842;29;43467;-60
2022/06/24 22:54:40;;;;;;;1.27;1.27;;;23.40;61.70;;;;;;4792483;29;43532;-60
2022/06/24 22:57:07;;;;;;;1.40;1.30;;;23.40;61.80;;;;;;4793659;29;43806;-60
2022/06/24 22:59:35;;;;;;;1.20;1.20;;;23.40;61.70;;;;;;4791637;29;43788;-60
2022/06/24 23:02:04;;;;;;;1.45;1.35;;;23.40;61.70;;;;;;4794081;29;43494;-60
2022/06/24 23:04:31;;;;;;;1.30;1.30;;;23.40;61.70;;;;;;4794515;29;43481;-60
2022/06/24 23:06:59;;;;;;;1.60;1.50;;;23.40;61.70;;;;;;4793668;29;44708;-60
2022/06/24 23:09:27;;;;;;;1.20;1.20;;;23.40;61.70;;;;;;4792838;29;43517;-60
2022/06/24 23:11:55;;;;;;;1.42;1.33;;;23.40;61.70;;;;;;4785871;29;43500;-60
2022/06/24 23:14:23;;;;;;;1.35;1.10;;;23.40;61.70;;;;;;4775447;29;43486;-60
2022/06/24 23:16:50;;;;;;;1.25;1.25;;;23.40;61.70;;;;;;4794195;29;44361;-60
2022/06/24 23:19:18;;;;;;;1.10;1.10;;;23.40;61.70;;;;;;4793613;29;43493;-60
2022/06/24 23:21:46;;;;;;;1.30;1.30;;;23.30;61.60;;;;;;4793324;29;43540;-60
2022/06/24 23:24:13;;;;;;;1.50;1.40;;;23.40;61.60;;;;;;4794037;29;43517;-60
2022/06/24 23:26:41;;;;;;;1.40;1.30;;;23.30;61.70;;;;;;4785268;29;44236;-60
2022/06/24 23:29:09;;;;;;;1.40;1.40;;;23.30;61.60;;;;;;4790601;29;43494;-60
2022/06/24 23:31:38;;;;;;;1.30;1.30;;;23.30;61.60;;;;;;4776443;29;43516;-60
2022/06/24 23:34:06;;;;;;;1.30;1.30;;;23.30;61.70;;;;;;4793037;29;43614;-60
2022/06/24 23:36:34;;;;;;;1.30;1.30;;;23.30;61.70;;;;;;4773918;29;44049;-60
2022/06/24 23:39:03;;;;;;;1.50;1.40;;;23.30;61.70;;;;;;4792143;29;43724;-60
2022/06/24 23:41:30;;;;;;;1.33;1.33;;;23.30;61.70;;;;;;4792754;29;43556;-60
2022/06/24 23:43:58;;;;;;;1.63;1.35;;;23.30;61.70;;;;;;4794298;29;43526;-60
2022/06/24 23:46:25;;;;;;;1.25;1.23;;;23.30;61.70;;;;;;4793103;29;44279;-60
2022/06/24 23:51:39;;;;;;;1.20;1.20;;;23.30;61.70;;;;;;4793815;29;43405;-60
2022/06/24 23:54:08;;;;;;;1.30;1.30;;;23.30;61.70;;;;;;4783235;29;43492;-60
2022/06/24 23:56:36;;;;;;;1.10;1.10;;;23.20;61.70;;;;;;4776060;29;45657;-60
2022/06/24 23:59:04;;;;;;;1.40;1.30;;;23.20;61.60;;;;;;4793075;29;43738;-60
